createdAt,value
2018-12-14T00:01:01.899Z,7.8
2018-12-14T00:02:03.155Z,7.8
2018-12-14T00:03:04.481Z,7.7
2018-12-14T00:04:05.721Z,8
2018-12-14T00:05:06.974Z,7.9
2018-12-14T00:06:08.664Z,7.9
2018-12-14T00:07:12.443Z,7.9
2018-12-14T00:08:13.693Z,7.9
2018-12-14T00:09:14.966Z,7.8
2018-12-14T00:10:17.507Z,7.7
2018-12-14T00:11:18.796Z,7.9
2018-12-14T00:12:20.078Z,7.8
2018-12-14T00:13:21.416Z,7.8
2018-12-14T00:14:22.657Z,8.1
2018-12-14T00:15:23.913Z,7.8
2018-12-14T00:16:25.175Z,7.5
2018-12-14T00:17:26.484Z,7.5
2018-12-14T00:18:27.694Z,7.8
2018-12-14T00:19:28.946Z,7.6
2018-12-14T00:20:30.196Z,7.4
2018-12-14T00:21:31.509Z,7.6
2018-12-14T00:22:32.741Z,7.6
2018-12-14T00:23:34.355Z,7.5
2018-12-14T00:24:35.616Z,7.5
2018-12-14T00:25:36.884Z,7.4
2018-12-14T00:26:38.155Z,7.5
2018-12-14T00:27:39.418Z,7.3
2018-12-14T00:28:40.710Z,7.2
2018-12-14T00:29:42.172Z,7.2
2018-12-14T00:30:43.411Z,7.3
2018-12-14T00:31:44.672Z,7
2018-12-14T00:32:45.956Z,7.1
2018-12-14T00:33:47.193Z,7.1
2018-12-14T00:34:48.454Z,7.1
2018-12-14T00:35:49.701Z,7.1
2018-12-14T00:36:51.003Z,7.1
2018-12-14T00:37:52.270Z,6.9
2018-12-14T00:38:53.594Z,6.6
2018-12-14T00:39:54.934Z,6.9
2018-12-14T00:40:56.309Z,6.7
2018-12-14T00:41:57.601Z,6.8
2018-12-14T00:42:58.884Z,7.1
2018-12-14T00:44:00.221Z,7.2
2018-12-14T00:45:01.463Z,7
2018-12-14T00:46:05.443Z,6.8
2018-12-14T00:47:07.408Z,6.8
2018-12-14T00:48:09.229Z,7
2018-12-14T00:49:10.672Z,7
2018-12-14T00:50:13.234Z,6.9
2018-12-14T00:51:14.469Z,7
2018-12-14T00:52:15.781Z,7
2018-12-14T00:53:17.023Z,6.7
2018-12-14T00:54:18.254Z,6.8
2018-12-14T00:55:19.491Z,6.6
2018-12-14T00:56:23.055Z,6.5
2018-12-14T00:57:24.334Z,6.3
2018-12-14T00:58:25.805Z,6.5
2018-12-14T00:59:29.953Z,6.5
2018-12-14T01:00:33.514Z,6.6
2018-12-14T01:01:34.745Z,6.3
2018-12-14T01:02:36.023Z,6.3
2018-12-14T01:03:37.276Z,6.3
2018-12-14T01:04:38.664Z,6.2
2018-12-14T01:05:40.328Z,6.1
2018-12-14T01:06:41.619Z,6.2
2018-12-14T01:07:42.891Z,6.4
2018-12-14T01:08:46.325Z,6.4
2018-12-14T01:09:51.898Z,6.2
2018-12-14T01:10:53.134Z,6.4
2018-12-14T01:11:58.143Z,6.3
2018-12-14T01:12:59.570Z,6.2
2018-12-14T01:14:00.811Z,6.3
2018-12-14T01:15:04.298Z,6.4
2018-12-14T01:16:06.011Z,6.4
2018-12-14T01:17:09.858Z,6.3
2018-12-14T01:18:11.138Z,6.6
2018-12-14T01:19:12.369Z,6.4
2018-12-14T01:20:13.622Z,6.4
2018-12-14T01:21:14.868Z,6.6
2018-12-14T01:22:16.103Z,6.5
2018-12-14T01:23:17.472Z,6.5
2018-12-14T01:24:18.754Z,6.3
2018-12-14T01:25:19.977Z,6.3
2018-12-14T01:26:21.194Z,6.4
2018-12-14T01:27:22.452Z,6.3
2018-12-14T01:28:23.719Z,6.2
2018-12-14T01:29:24.950Z,6.2
2018-12-14T01:30:28.175Z,6.2
2018-12-14T01:31:29.427Z,6.3
2018-12-14T01:32:30.674Z,6.3
2018-12-14T01:33:31.946Z,6.3
2018-12-14T01:34:33.194Z,6.5
2018-12-14T01:35:34.468Z,6.6
2018-12-14T01:36:35.695Z,6.2
2018-12-14T01:37:36.934Z,6.1
2018-12-14T01:38:38.633Z,6.2
2018-12-14T01:39:39.878Z,5.9
2018-12-14T01:40:41.160Z,5.9
2018-12-14T01:41:42.398Z,5.9
2018-12-14T01:42:48.107Z,6
2018-12-14T01:43:49.379Z,6
2018-12-14T01:44:52.954Z,6
2018-12-14T01:45:54.190Z,6
2018-12-14T01:46:55.407Z,5.9
2018-12-14T01:47:58.887Z,6.1
2018-12-14T01:49:00.215Z,5.9
2018-12-14T01:50:01.462Z,5.9
2018-12-14T01:51:02.717Z,5.9
2018-12-14T01:52:03.967Z,6
2018-12-14T01:53:05.227Z,6
2018-12-14T01:54:09.585Z,6.1
2018-12-14T01:55:10.823Z,6.2
2018-12-14T01:56:12.384Z,6.1
2018-12-14T01:57:13.651Z,6.1
2018-12-14T01:58:16.354Z,6
2018-12-14T01:59:17.611Z,5.9
2018-12-14T02:00:18.847Z,6
2018-12-14T02:01:20.072Z,6
2018-12-14T02:02:21.670Z,6.1
2018-12-14T02:03:22.939Z,6.1
2018-12-14T02:04:24.203Z,6.1
2018-12-14T02:05:25.446Z,5.9
2018-12-14T02:06:26.702Z,6
2018-12-14T02:07:29.298Z,6.2
2018-12-14T02:08:30.539Z,6.1
2018-12-14T02:09:31.832Z,6.1
2018-12-14T02:10:33.070Z,5.9
2018-12-14T02:11:34.308Z,5.9
2018-12-14T02:12:35.554Z,5.8
2018-12-14T02:13:36.807Z,5.7
2018-12-14T02:14:38.074Z,5.8
2018-12-14T02:15:39.323Z,5.9
2018-12-14T02:16:40.566Z,6.1
2018-12-14T02:17:45.837Z,6.1
2018-12-14T02:18:47.081Z,6
2018-12-14T02:19:48.360Z,5.9
2018-12-14T02:20:51.508Z,5.9
2018-12-14T02:21:55.536Z,6
2018-12-14T02:22:56.758Z,6.1
2018-12-14T02:23:57.993Z,5.9
2018-12-14T02:24:59.338Z,6
2018-12-14T02:26:00.590Z,5.9
2018-12-14T02:27:01.832Z,6.1
2018-12-14T02:28:03.104Z,5.8
2018-12-14T02:29:04.332Z,6
2018-12-14T02:30:05.582Z,6.1
2018-12-14T02:31:06.831Z,6.1
2018-12-14T02:32:08.091Z,5.8
2018-12-14T02:33:09.356Z,5.9
2018-12-14T02:34:10.591Z,5.9
2018-12-14T02:35:11.908Z,5.9
2018-12-14T02:36:13.142Z,5.7
2018-12-14T02:37:14.398Z,5.8
2018-12-14T02:38:15.670Z,5.9
2018-12-14T02:39:16.900Z,5.9
2018-12-14T02:40:18.503Z,5.9
2018-12-14T02:41:19.743Z,5.7
2018-12-14T02:42:20.983Z,5.8
2018-12-14T02:43:22.219Z,5.9
2018-12-14T02:44:23.479Z,6.1
2018-12-14T02:45:25.112Z,5.9
2018-12-14T02:46:26.329Z,5.9
2018-12-14T02:47:27.587Z,5.8
2018-12-14T02:48:28.827Z,5.9
2018-12-14T02:49:30.070Z,5.9
2018-12-14T02:50:31.331Z,5.8
2018-12-14T02:51:32.591Z,6
2018-12-14T02:52:33.809Z,6
2018-12-14T02:53:35.074Z,6
2018-12-14T02:54:38.804Z,6
2018-12-14T02:55:40.322Z,5.7
2018-12-14T02:56:41.578Z,5.7
2018-12-14T02:57:45.413Z,5.9
2018-12-14T02:58:46.653Z,5.7
2018-12-14T02:59:47.878Z,5.9
2018-12-14T03:00:49.160Z,6.1
2018-12-14T03:01:50.739Z,6.1
2018-12-14T03:02:52.039Z,6
2018-12-14T03:03:53.275Z,5.9
2018-12-14T03:04:54.506Z,5.8
2018-12-14T03:05:55.788Z,5.9
2018-12-14T03:06:57.031Z,6
2018-12-14T03:07:58.271Z,6.1
2018-12-14T03:08:59.523Z,5.9
2018-12-14T03:10:00.751Z,6.2
2018-12-14T03:11:02.564Z,5.9
2018-12-14T03:12:03.799Z,6.1
2018-12-14T03:13:05.069Z,6.1
2018-12-14T03:14:06.309Z,5.7
2018-12-14T03:15:07.555Z,5.8
2018-12-14T03:16:08.859Z,6.1
2018-12-14T03:17:10.101Z,6
2018-12-14T03:18:11.342Z,5.9
2018-12-14T03:19:12.584Z,5.8
2018-12-14T03:20:13.818Z,5.9
2018-12-14T03:21:15.077Z,5.7
2018-12-14T03:22:16.334Z,5.8
2018-12-14T03:23:17.750Z,6.1
2018-12-14T03:24:18.986Z,5.8
2018-12-14T03:25:20.219Z,5.7
2018-12-14T03:26:21.679Z,5.7
2018-12-14T03:27:22.907Z,5.9
2018-12-14T03:28:24.139Z,5.9
2018-12-14T03:29:25.396Z,5.8
2018-12-14T03:30:26.618Z,5.7
2018-12-14T03:31:28.178Z,5.8
2018-12-14T03:32:29.420Z,5.8
2018-12-14T03:33:30.654Z,5.8
2018-12-14T03:34:31.883Z,5.7
2018-12-14T03:35:33.114Z,5.7
2018-12-14T03:36:34.375Z,5.7
2018-12-14T03:37:35.602Z,5.9
2018-12-14T03:38:37.081Z,5.9
2018-12-14T03:39:38.449Z,5.8
2018-12-14T03:40:39.688Z,5.8
2018-12-14T03:41:41.068Z,5.7
2018-12-14T03:42:42.295Z,5.7
2018-12-14T03:43:43.520Z,5.6
2018-12-14T03:44:44.756Z,5.5
2018-12-14T03:45:46.775Z,5.5
2018-12-14T03:46:48.051Z,5.7
2018-12-14T03:47:49.295Z,5.6
2018-12-14T03:48:50.547Z,5.6
2018-12-14T03:49:51.769Z,5.4
2018-12-14T03:50:53.342Z,5.5
2018-12-14T03:51:54.598Z,5.5
2018-12-14T03:52:55.834Z,5.4
2018-12-14T03:53:57.088Z,5.5
2018-12-14T03:54:58.307Z,5.7
2018-12-14T03:55:59.566Z,5.6
2018-12-14T03:57:00.846Z,5.9
2018-12-14T03:58:02.104Z,6
2018-12-14T03:59:03.351Z,5.8
2018-12-14T04:00:04.594Z,5.9
2018-12-14T04:01:05.831Z,5.8
2018-12-14T04:02:07.104Z,5.7
2018-12-14T04:03:08.338Z,5.6
2018-12-14T04:04:09.614Z,5.7
2018-12-14T04:05:11.200Z,5.9
2018-12-14T04:06:12.447Z,5.8
2018-12-14T04:07:13.718Z,5.7
2018-12-14T04:08:15.036Z,5.6
2018-12-14T04:09:16.295Z,5.5
2018-12-14T04:10:17.549Z,5.5
2018-12-14T04:11:18.791Z,5.3
2018-12-14T04:12:20.230Z,5.3
2018-12-14T04:13:21.495Z,5.5
2018-12-14T04:14:23.042Z,5.6
2018-12-14T04:15:24.274Z,5.7
2018-12-14T04:16:25.524Z,5.8
2018-12-14T04:17:26.806Z,5.7
2018-12-14T04:18:28.039Z,5.8
2018-12-14T04:19:29.283Z,5.5
2018-12-14T04:20:30.530Z,5.3
2018-12-14T04:21:31.758Z,5.4
2018-12-14T04:22:33.204Z,5.4
2018-12-14T04:23:34.464Z,5.4
2018-12-14T04:24:35.741Z,5.5
2018-12-14T04:25:36.960Z,5.6
2018-12-14T04:26:38.200Z,5.6
2018-12-14T04:27:43.355Z,5.3
2018-12-14T04:28:44.588Z,5.4
2018-12-14T04:29:45.846Z,5.4
2018-12-14T04:30:47.139Z,5.4
2018-12-14T04:31:48.386Z,5.1
2018-12-14T04:32:49.655Z,5.1
2018-12-14T04:33:50.947Z,5.2
2018-12-14T04:34:52.217Z,5.2
2018-12-14T04:35:53.466Z,5
2018-12-14T04:36:54.702Z,5.1
2018-12-14T04:37:55.974Z,5.1
2018-12-14T04:38:57.204Z,5.1
2018-12-14T04:39:58.439Z,5.1
2018-12-14T04:40:59.678Z,5.1
2018-12-14T04:42:00.910Z,5.1
2018-12-14T04:43:02.198Z,5
2018-12-14T04:44:03.472Z,5.1
2018-12-14T04:45:06.849Z,5.2
2018-12-14T04:46:08.070Z,5.5
2018-12-14T04:47:09.310Z,5.4
2018-12-14T04:48:10.587Z,5.3
2018-12-14T04:49:11.933Z,5.3
2018-12-14T04:50:13.168Z,5.1
2018-12-14T04:51:14.618Z,5.2
2018-12-14T04:52:17.845Z,5.2
2018-12-14T04:53:19.191Z,5.4
2018-12-14T04:54:20.443Z,5.3
2018-12-14T04:55:21.671Z,5.3
2018-12-14T04:56:22.882Z,5.3
2018-12-14T04:57:24.128Z,5.7
2018-12-14T04:58:26.966Z,5.6
2018-12-14T04:59:28.238Z,5.4
2018-12-14T05:00:29.796Z,5.7
2018-12-14T05:01:31.043Z,5.4
2018-12-14T05:02:32.305Z,5.2
2018-12-14T05:03:33.595Z,5.7
2018-12-14T05:04:34.854Z,5.4
2018-12-14T05:05:36.132Z,5.2
2018-12-14T05:06:37.369Z,5
2018-12-14T05:07:38.640Z,5.3
2018-12-14T05:08:39.927Z,5.4
2018-12-14T05:09:41.155Z,5.5
2018-12-14T05:10:42.415Z,5.3
2018-12-14T05:11:43.919Z,5.4
2018-12-14T05:12:45.170Z,5.3
2018-12-14T05:13:46.466Z,5.1
2018-12-14T05:14:47.726Z,5.1
2018-12-14T05:15:48.989Z,5.4
2018-12-14T05:16:50.226Z,5.4
2018-12-14T05:17:51.476Z,5.4
2018-12-14T05:18:52.773Z,5.5
2018-12-14T05:19:54.373Z,5.4
2018-12-14T05:20:58.628Z,5.6
2018-12-14T05:21:59.883Z,5.6
2018-12-14T05:23:01.132Z,5.7
2018-12-14T05:24:05.366Z,5.8
2018-12-14T05:25:06.607Z,5.6
2018-12-14T05:26:08.559Z,5.7
2018-12-14T05:27:09.789Z,5.7
2018-12-14T05:28:11.033Z,5.9
2018-12-14T05:29:15.029Z,5.5
2018-12-14T05:30:16.261Z,5.7
2018-12-14T05:31:17.511Z,5.6
2018-12-14T05:32:18.768Z,5.7
2018-12-14T05:33:20.012Z,5.8
2018-12-14T05:34:21.311Z,5.9
2018-12-14T05:35:22.552Z,5.8
2018-12-14T05:36:25.926Z,5.6
2018-12-14T05:37:28.440Z,5.5
2018-12-14T05:38:29.674Z,5.7
2018-12-14T05:39:31.009Z,5.8
2018-12-14T05:40:32.237Z,6
2018-12-14T05:41:33.495Z,6.1
2018-12-14T05:42:34.783Z,6
2018-12-14T05:43:36.599Z,5.9
2018-12-14T05:44:37.886Z,6
2018-12-14T05:45:39.119Z,5.7
2018-12-14T05:46:40.385Z,5.4
2018-12-14T05:47:41.674Z,5.5
2018-12-14T05:48:42.943Z,5.8
2018-12-14T05:49:44.222Z,5.7
2018-12-14T05:50:45.491Z,5.9
2018-12-14T05:51:46.962Z,5.8
2018-12-14T05:52:48.178Z,5.8
2018-12-14T05:53:49.414Z,6
2018-12-14T05:54:50.743Z,5.9
2018-12-14T05:55:53.636Z,5.6
2018-12-14T05:56:54.885Z,5.8
2018-12-14T05:57:56.794Z,6
2018-12-14T05:59:00.470Z,5.9
2018-12-14T06:00:04.758Z,5.8
2018-12-14T06:01:05.998Z,5.9
2018-12-14T06:02:07.310Z,5.7
2018-12-14T06:03:08.969Z,5.7
2018-12-14T06:04:10.197Z,5.9
2018-12-14T06:05:11.479Z,5.9
2018-12-14T06:06:12.721Z,5.7
2018-12-14T06:07:14.185Z,5.7
2018-12-14T06:08:17.075Z,5.6
2018-12-14T06:09:21.107Z,5.6
2018-12-14T06:10:22.651Z,5.6
2018-12-14T06:11:23.939Z,5.6
2018-12-14T06:12:25.195Z,5.4
2018-12-14T06:13:26.451Z,5.5
2018-12-14T06:14:27.704Z,5.2
2018-12-14T06:15:29.635Z,5.2
2018-12-14T06:16:30.862Z,5.2
2018-12-14T06:17:32.407Z,5.3
2018-12-14T06:18:33.675Z,5.3
2018-12-14T06:19:34.939Z,5.4
2018-12-14T06:20:36.219Z,5.4
2018-12-14T06:21:37.491Z,5.4
2018-12-14T06:22:38.749Z,5.5
2018-12-14T06:23:40.017Z,5.6
2018-12-14T06:24:43.821Z,5.5
2018-12-14T06:25:45.115Z,5.3
2018-12-14T06:26:46.362Z,5.3
2018-12-14T06:27:47.619Z,5.4
2018-12-14T06:28:48.972Z,5.6
2018-12-14T06:29:50.224Z,5.5
2018-12-14T06:30:51.682Z,5.2
2018-12-14T06:31:53.206Z,5.6
2018-12-14T06:32:54.446Z,5.5
2018-12-14T06:33:55.691Z,5.7
2018-12-14T06:34:59.552Z,5.7
2018-12-14T06:36:00.833Z,5.5
2018-12-14T06:37:02.427Z,5.3
2018-12-14T06:38:03.706Z,5.3
2018-12-14T06:39:05.016Z,5.3
2018-12-14T06:40:06.268Z,5
2018-12-14T06:41:07.558Z,5.7
2018-12-14T06:42:08.814Z,6.1
2018-12-14T06:43:15.283Z,5.9
2018-12-14T06:44:18.987Z,5.7
2018-12-14T06:45:20.307Z,5.2
2018-12-14T06:46:21.835Z,5.3
2018-12-14T06:47:23.068Z,5.4
2018-12-14T06:48:24.758Z,5.2
2018-12-14T06:49:28.779Z,5.3
2018-12-14T06:50:33.387Z,5.5
2018-12-14T06:51:34.646Z,5.4
2018-12-14T06:52:36.417Z,5.4
2018-12-14T06:53:37.679Z,5.5
2018-12-14T06:54:38.965Z,5.4
2018-12-14T06:55:40.201Z,5.2
2018-12-14T06:57:53.983Z,5.2
2018-12-14T06:58:55.302Z,5.2
2018-12-14T06:59:57.652Z,5.1
2018-12-14T07:00:58.931Z,5.1
2018-12-14T07:02:00.665Z,5.3
2018-12-14T07:03:01.979Z,5.3
2018-12-14T07:04:03.332Z,5.4
2018-12-14T07:05:04.629Z,5.3
2018-12-14T07:06:07.252Z,5.2
2018-12-14T07:07:11.653Z,5.6
2018-12-14T07:08:12.962Z,5.4
2018-12-14T07:09:14.281Z,6.1
2018-12-14T07:10:15.605Z,7.8
2018-12-14T07:11:16.902Z,8.7
2018-12-14T07:12:18.333Z,9.1
2018-12-14T07:13:22.166Z,9.6
2018-12-14T07:14:23.548Z,9.9
2018-12-14T07:15:25.064Z,10.1
2018-12-14T07:16:26.325Z,10.2
2018-12-14T07:17:28.085Z,10.1
2018-12-14T07:18:32.303Z,10.5
2018-12-14T07:19:33.563Z,10.6
2018-12-14T07:20:34.923Z,10.7
2018-12-14T07:21:38.762Z,10.7
2018-12-14T07:22:40.104Z,11.1
2018-12-14T07:23:41.765Z,11
2018-12-14T07:24:46.313Z,11
2018-12-14T07:25:47.624Z,11
2018-12-14T07:26:48.911Z,10.9
2018-12-14T07:27:50.312Z,10.9
2018-12-14T07:28:51.869Z,10.9
2018-12-14T07:29:53.170Z,10.9
2018-12-14T07:30:54.498Z,10.8
2018-12-14T07:31:55.798Z,10.6
2018-12-14T07:32:58.124Z,10.5
2018-12-14T07:33:59.425Z,10.9
2018-12-14T07:35:00.771Z,11.1
2018-12-14T07:36:04.243Z,11.1
2018-12-14T07:37:08.184Z,11.1
2018-12-14T07:38:09.989Z,11.3
2018-12-14T07:39:11.311Z,11.3
2018-12-14T07:40:16.764Z,11.4
2018-12-14T07:41:18.074Z,11.6
2018-12-14T07:42:19.579Z,11.6
2018-12-14T07:43:28.032Z,11.9
2018-12-14T07:44:34.357Z,11.9
2018-12-14T07:45:36.342Z,12
2018-12-14T07:46:40.427Z,11.9
2018-12-14T07:47:43.823Z,11.9
2018-12-14T07:48:51.366Z,12.1
2018-12-14T07:49:53.259Z,12.3
2018-12-14T07:50:54.640Z,12.2
2018-12-14T07:51:55.931Z,12.3
2018-12-14T07:52:57.270Z,12.2
2018-12-14T07:53:58.639Z,12.4
2018-12-14T07:55:04.489Z,12.2
2018-12-14T07:56:06.350Z,12
2018-12-14T07:57:07.672Z,12.1
2018-12-14T07:58:09.028Z,12.3
2018-12-14T07:59:10.400Z,12.5
2018-12-14T08:00:14.432Z,12.6
2018-12-14T08:01:18.213Z,12.7
2018-12-14T08:02:20.996Z,12.9
2018-12-14T08:03:24.292Z,12.8
2018-12-14T08:04:25.644Z,12.9
2018-12-14T08:05:28.840Z,12.9
2018-12-14T08:06:30.174Z,12.8
2018-12-14T08:07:31.474Z,12.6
2018-12-14T08:08:33.281Z,12.7
2018-12-14T08:09:34.652Z,12.8
2018-12-14T08:10:35.953Z,12.9
2018-12-14T08:11:42.434Z,13
2018-12-14T08:12:43.775Z,13
2018-12-14T08:13:45.107Z,12.9
2018-12-14T08:14:49.513Z,13
2018-12-14T08:15:50.811Z,13.1
2018-12-14T08:16:52.063Z,13.4
2018-12-14T08:17:56.054Z,13.2
2018-12-14T08:18:57.299Z,13.1
2018-12-14T08:19:58.670Z,13.3
2018-12-14T08:20:59.944Z,13.6
2018-12-14T08:22:01.200Z,13.9
2018-12-14T08:23:03.758Z,14
2018-12-14T08:24:05.025Z,13.7
2018-12-14T08:25:06.320Z,13.3
2018-12-14T08:26:07.582Z,13.3
2018-12-14T08:27:08.948Z,13.4
2018-12-14T08:28:10.198Z,13.4
2018-12-14T08:29:12.661Z,13.7
2018-12-14T08:31:24.737Z,14
2018-12-14T08:32:31.963Z,13.9
2018-12-14T08:33:35.476Z,14
2018-12-14T08:34:36.736Z,13.9
2018-12-14T08:35:40.982Z,13.8
2018-12-14T08:36:42.334Z,13.8
2018-12-14T08:37:46.746Z,14
2018-12-14T08:38:48.043Z,14.3
2018-12-14T08:39:49.542Z,14.3
2018-12-14T08:40:50.893Z,14.4
2018-12-14T08:41:52.152Z,14.1
2018-12-14T08:42:53.430Z,14
2018-12-14T08:43:56.880Z,14
2018-12-14T08:45:00.226Z,13.9
2018-12-14T08:46:02.761Z,14
2018-12-14T08:47:04.036Z,14.1
2018-12-14T08:48:09.264Z,13.9
2018-12-14T08:49:10.569Z,13.9
2018-12-14T08:50:11.991Z,13.8
2018-12-14T08:51:16.065Z,13.8
2018-12-14T08:52:17.402Z,13.8
2018-12-14T08:53:21.674Z,13.8
2018-12-14T08:54:26.309Z,13.8
2018-12-14T08:55:30.545Z,13.5
2018-12-14T08:56:31.839Z,13.3
2018-12-14T08:57:33.130Z,13.4
2018-12-14T08:58:34.386Z,13.4
2018-12-14T08:59:35.682Z,13.6
2018-12-14T09:01:46.570Z,13.3
2018-12-14T09:02:47.826Z,13.2
2018-12-14T09:03:49.077Z,13.1
2018-12-14T09:04:54.220Z,12.9
2018-12-14T09:05:55.501Z,12.8
2018-12-14T09:06:56.836Z,12.9
2018-12-14T09:07:58.120Z,12.9
2018-12-14T09:08:59.744Z,13.1
2018-12-14T09:10:01.020Z,13.1
2018-12-14T09:11:06.236Z,13.1
2018-12-14T09:12:07.573Z,12.8
2018-12-14T09:13:08.955Z,12.9
2018-12-14T09:14:10.237Z,12.9
2018-12-14T09:15:11.630Z,13.1
2018-12-14T09:16:14.927Z,13.2
2018-12-14T09:17:18.922Z,13.1
2018-12-14T09:18:20.226Z,13.3
2018-12-14T09:19:21.773Z,13.3
2018-12-14T09:20:23.304Z,13.3
2018-12-14T09:21:24.780Z,13.3
2018-12-14T09:22:29.226Z,13.4
2018-12-14T09:23:30.481Z,13.4
2018-12-14T09:24:31.802Z,13.4
2018-12-14T09:25:33.062Z,13.4
2018-12-14T09:26:34.327Z,13.3
2018-12-14T09:27:38.387Z,13.2
2018-12-14T09:28:39.666Z,13.3
2018-12-14T09:29:40.907Z,13.2
2018-12-14T09:30:42.738Z,13.5
2018-12-14T09:31:45.788Z,13.6
2018-12-14T09:32:49.797Z,13.4
2018-12-14T09:33:51.295Z,13.5
2018-12-14T09:34:52.538Z,13.4
2018-12-14T09:35:53.779Z,13.6
2018-12-14T09:36:55.046Z,13.4
2018-12-14T09:37:56.374Z,13.4
2018-12-14T09:38:57.666Z,13.3
2018-12-14T09:39:59.079Z,13.4
2018-12-14T09:41:00.351Z,13.4
2018-12-14T09:42:01.664Z,13.5
2018-12-14T09:43:06.899Z,13.5
2018-12-14T09:44:11.303Z,13.6
2018-12-14T09:45:12.770Z,13.2
2018-12-14T09:46:14.071Z,13.3
2018-12-14T09:47:18.051Z,13.2
2018-12-14T09:48:19.635Z,13.2
2018-12-14T09:49:22.320Z,13.2
2018-12-14T09:50:25.495Z,13.3
2018-12-14T09:51:30.733Z,13.1
2018-12-14T09:52:32.287Z,13.2
2018-12-14T09:53:37.087Z,13.4
2018-12-14T09:54:38.878Z,13.4
2018-12-14T09:55:40.153Z,13.7
2018-12-14T09:56:43.886Z,13.8
2018-12-14T09:57:45.153Z,13.9
2018-12-14T09:58:48.883Z,13.9
2018-12-14T09:59:50.151Z,13.9
2018-12-14T10:00:51.414Z,13.9
2018-12-14T10:02:01.174Z,14
2018-12-14T10:03:02.467Z,14.1
2018-12-14T10:04:03.773Z,14.1
2018-12-14T10:05:05.028Z,14.2
2018-12-14T10:06:06.341Z,14.1
2018-12-14T10:07:07.600Z,14.1
2018-12-14T10:08:14.006Z,14
2018-12-14T10:09:15.779Z,14.1
2018-12-14T10:10:20.779Z,14.4
2018-12-14T10:11:24.525Z,14.4
2018-12-14T10:12:28.446Z,14.5
2018-12-14T10:13:32.204Z,14.5
2018-12-14T10:14:33.506Z,14.7
2018-12-14T10:15:34.759Z,14.5
2018-12-14T10:16:38.335Z,14.7
2018-12-14T10:17:39.963Z,14.9
2018-12-14T10:18:41.223Z,15.1
2018-12-14T10:19:42.763Z,15.2
2018-12-14T10:20:46.254Z,14.9
2018-12-14T10:21:50.380Z,14.8
2018-12-14T10:22:58.350Z,14.7
2018-12-14T10:23:59.648Z,14.4
2018-12-14T10:25:00.960Z,14.4
2018-12-14T10:26:02.289Z,14.4
2018-12-14T10:27:06.125Z,14.3
2018-12-14T10:28:07.390Z,14.2
2018-12-14T10:29:08.649Z,14.1
2018-12-14T10:30:15.466Z,14.2
2018-12-14T10:31:16.964Z,14.1
2018-12-14T10:32:19.425Z,14.2
2018-12-14T10:33:23.542Z,14.3
2018-12-14T10:34:27.024Z,14.2
2018-12-14T10:35:28.302Z,14.1
2018-12-14T10:36:32.627Z,14
2018-12-14T10:37:36.162Z,14.1
2018-12-14T10:38:41.772Z,14
2018-12-14T10:39:43.146Z,14.1
2018-12-14T10:40:47.550Z,13.8
2018-12-14T10:41:53.937Z,13.9
2018-12-14T10:42:57.451Z,13.9
2018-12-14T10:43:58.737Z,13.7
2018-12-14T10:45:08.177Z,14
2018-12-14T10:46:09.466Z,13.9
2018-12-14T10:47:14.683Z,13.8
2018-12-14T10:48:15.950Z,13.8
2018-12-14T10:49:20.273Z,13.6
2018-12-14T10:50:22.616Z,13.9
2018-12-14T10:51:26.404Z,14.1
2018-12-14T10:52:30.180Z,14.1
2018-12-14T10:53:31.673Z,13.8
2018-12-14T10:54:33.312Z,13.8
2018-12-14T10:55:34.676Z,13.8
2018-12-14T10:56:38.408Z,13.7
2018-12-14T10:57:39.716Z,13.8
2018-12-14T10:58:41.479Z,13.9
2018-12-14T10:59:42.787Z,13.9
2018-12-14T11:00:44.089Z,13.9
2018-12-14T11:01:45.395Z,14
2018-12-14T11:02:47.139Z,14.1
2018-12-14T11:03:48.385Z,14.3
2018-12-14T11:04:49.738Z,14.2
2018-12-14T11:05:51.030Z,14.1
2018-12-14T11:07:01.630Z,14.1
2018-12-14T11:08:02.971Z,14.2
2018-12-14T11:09:04.269Z,14
2018-12-14T11:10:08.616Z,13.9
2018-12-14T11:11:09.949Z,13.8
2018-12-14T11:12:15.806Z,13.7
2018-12-14T11:13:17.077Z,13.8
2018-12-14T11:14:20.132Z,13.9
2018-12-14T11:15:21.439Z,13.8
2018-12-14T11:16:23.009Z,13.8
2018-12-14T11:17:24.327Z,13.9
2018-12-14T11:18:25.598Z,13.8
2018-12-14T11:19:26.871Z,13.8
2018-12-14T11:20:28.208Z,13.8
2018-12-14T11:21:35.373Z,13.8
2018-12-14T11:22:37.939Z,14
2018-12-14T11:23:39.228Z,14
2018-12-14T11:24:42.459Z,14.1
2018-12-14T11:25:44.901Z,14.1
2018-12-14T11:26:49.179Z,13.9
2018-12-14T11:27:58.994Z,13.7
2018-12-14T11:29:00.250Z,13.7
2018-12-14T11:30:06.590Z,13.8
2018-12-14T11:31:10.385Z,14
2018-12-14T11:32:13.520Z,14
2018-12-14T11:33:14.856Z,13.9
2018-12-14T11:34:17.491Z,14
2018-12-14T11:35:18.754Z,14
2018-12-14T11:37:41.360Z,13.9
2018-12-14T11:38:43.326Z,14.1
2018-12-14T11:39:47.477Z,14.4
2018-12-14T11:40:48.773Z,14.5
2018-12-14T11:41:52.531Z,14.4
2018-12-14T11:42:53.781Z,14.5
2018-12-14T11:43:57.989Z,14.5
2018-12-14T11:45:01.440Z,14.4
2018-12-14T11:46:05.402Z,14.5
2018-12-14T11:47:06.708Z,14.6
2018-12-14T11:48:08.040Z,14.6
2018-12-14T11:49:09.639Z,14.6
2018-12-14T11:50:11.719Z,14.6
2018-12-14T11:51:16.556Z,14.7
2018-12-14T11:52:18.111Z,14.6
2018-12-14T11:53:22.413Z,14.5
2018-12-14T11:54:23.858Z,14.5
2018-12-14T11:55:32.745Z,14.5
2018-12-14T11:56:39.192Z,14.7
2018-12-14T11:57:43.296Z,15
2018-12-14T11:58:44.873Z,15.2
2018-12-14T11:59:48.166Z,15.3
2018-12-14T12:00:49.433Z,15.2
2018-12-14T12:01:50.712Z,15
2018-12-14T12:02:52.554Z,14.7
2018-12-14T12:03:56.786Z,14.7
2018-12-14T12:04:58.329Z,14.6
2018-12-14T12:06:05.614Z,14.6
2018-12-14T12:07:09.302Z,14.7
2018-12-14T12:08:10.580Z,14.6
2018-12-14T12:09:12.311Z,14.5
2018-12-14T12:10:18.201Z,14.6
2018-12-14T12:11:22.007Z,14.4
2018-12-14T12:12:32.584Z,14.4
2018-12-14T12:13:36.832Z,14.5
2018-12-14T12:14:38.155Z,14.4
2018-12-14T12:15:39.787Z,14.2
2018-12-14T12:16:41.162Z,14.1
2018-12-14T12:17:49.329Z,14.1
2018-12-14T12:18:50.945Z,14.1
2018-12-14T12:19:52.291Z,14.1
2018-12-14T12:20:56.394Z,14.1
2018-12-14T12:21:57.676Z,14.3
2018-12-14T12:22:58.966Z,14.2
2018-12-14T12:24:00.557Z,14
2018-12-14T12:25:05.386Z,13.8
2018-12-14T12:26:07.010Z,13.9
2018-12-14T12:27:09.842Z,14
2018-12-14T12:28:14.329Z,14
2018-12-14T12:29:15.621Z,14.1
2018-12-14T12:30:19.404Z,14.2
2018-12-14T12:31:24.419Z,14.1
2018-12-14T12:32:27.784Z,14
2018-12-14T12:33:31.716Z,14.2
2018-12-14T12:34:35.638Z,14
2018-12-14T12:35:37.158Z,14
2018-12-14T12:36:38.830Z,13.9
2018-12-14T12:37:40.108Z,14
2018-12-14T12:38:41.404Z,14.1
2018-12-14T12:39:42.960Z,14.1
2018-12-14T12:40:49.988Z,14
2018-12-14T12:41:51.296Z,14.2
2018-12-14T12:42:57.863Z,14.1
2018-12-14T12:43:59.133Z,14
2018-12-14T12:45:00.631Z,14.1
2018-12-14T12:46:06.087Z,14.2
2018-12-14T12:47:10.680Z,14.1
2018-12-14T12:48:13.167Z,14.3
2018-12-14T12:49:17.644Z,14.3
2018-12-14T12:50:18.935Z,14.2
2018-12-14T12:51:20.293Z,14
2018-12-14T12:52:22.951Z,13.8
2018-12-14T12:53:30.335Z,13.9
2018-12-14T12:54:31.666Z,13.9
2018-12-14T12:55:39.421Z,13.9
2018-12-14T12:56:40.979Z,13.9
2018-12-14T12:57:46.651Z,13.9
2018-12-14T12:58:48.160Z,13.9
2018-12-14T12:59:49.448Z,13.8
2018-12-14T13:00:50.736Z,13.9
2018-12-14T13:01:54.347Z,14
2018-12-14T13:02:55.683Z,13.9
2018-12-14T13:03:56.965Z,14.2
2018-12-14T13:05:00.868Z,14
2018-12-14T13:06:08.750Z,13.9
2018-12-14T13:07:10.047Z,14
2018-12-14T13:08:11.372Z,14
2018-12-14T13:09:14.753Z,14.1
2018-12-14T13:10:16.385Z,14.1
2018-12-14T13:11:17.847Z,14
2018-12-14T13:12:20.756Z,14.1
2018-12-14T13:13:34.678Z,14.1
2018-12-14T13:14:39.921Z,13.9
2018-12-14T13:15:41.639Z,13.8
2018-12-14T13:16:43.090Z,13.8
2018-12-14T13:17:44.401Z,13.8
2018-12-14T13:18:48.707Z,13.8
2018-12-14T13:19:52.902Z,13.9
2018-12-14T13:20:54.337Z,14
2018-12-14T13:21:55.613Z,14
2018-12-14T13:22:58.264Z,14.4
2018-12-14T13:24:05.338Z,14.4
2018-12-14T13:25:06.605Z,14.4
2018-12-14T13:26:08.140Z,14.3
2018-12-14T13:27:09.447Z,14.3
2018-12-14T13:28:10.990Z,14.3
2018-12-14T13:29:15.773Z,14.3
2018-12-14T13:30:17.041Z,14.4
2018-12-14T13:31:22.510Z,14.6
2018-12-14T13:32:23.792Z,14.6
2018-12-14T13:33:25.293Z,14.8
2018-12-14T13:34:26.605Z,15
2018-12-14T13:35:27.885Z,14.9
2018-12-14T13:36:29.307Z,15
2018-12-14T13:37:30.833Z,15
2018-12-14T13:38:32.151Z,14.9
2018-12-14T13:39:36.318Z,14.7
2018-12-14T13:40:38.043Z,14.7
2018-12-14T13:41:41.805Z,14.7
2018-12-14T13:42:43.121Z,14.5
2018-12-14T13:43:44.749Z,14.4
2018-12-14T13:44:48.589Z,14.6
2018-12-14T13:45:50.105Z,14.8
2018-12-14T13:46:51.411Z,14.9
2018-12-14T13:47:52.729Z,14.6
2018-12-14T13:49:02.607Z,14.5
2018-12-14T13:50:07.209Z,14.5
2018-12-14T13:51:12.922Z,14.7
2018-12-14T13:52:17.616Z,14.7
2018-12-14T13:53:19.122Z,14.5
2018-12-14T13:54:20.424Z,14.5
2018-12-14T13:55:21.820Z,14.5
2018-12-14T13:56:23.263Z,14.3
2018-12-14T13:57:24.537Z,14.2
2018-12-14T13:58:27.384Z,14.2
2018-12-14T13:59:28.677Z,14.1
2018-12-14T14:00:31.543Z,14.2
2018-12-14T14:01:34.089Z,14.1
2018-12-14T14:02:35.355Z,14
2018-12-14T14:03:38.101Z,14.1
2018-12-14T14:04:39.413Z,14.2
2018-12-14T14:05:41.105Z,14.2
2018-12-14T14:06:42.428Z,14.4
2018-12-14T14:07:44.328Z,14.4
2018-12-14T14:08:46.099Z,14.2
2018-12-14T14:09:47.739Z,14.1
2018-12-14T14:10:49.082Z,14.2
2018-12-14T14:11:55.847Z,14.1
2018-12-14T14:12:57.290Z,14.2